Latest Coastal Weather Observations for Kowanyama

IDQ60701

Issued at 9:42 am EST Saturday 1 October 2016 (issued every 10 minutes, with the page automatically refreshed every 10 minutes)

About coastal observations | Map of coastal stations | Coastal observations for QLD | Marine services | Other Formats
Station Details ID: 029038 Name: KOWANYAMA AIRPORT Lat: -15.48 Lon: 141.75 Height: 9.6 m
Data from the previous 72 hours. | See also: Recent months at Kowanyama
Date/Time
EST
Temp
°C
Wind Pressure Rain since
9am
mm
Weather Cloud Vis
km
Sea
Height
m
Swell
Dir  Spd
kts
Gust
kts
hPa Trend Height
m
Period
s
Dir
01/09:30am 32.0 NE 6 9 1012.7 - 0.0 - - 10 - - - -
01/09:00am 31.5 NE 6 8 1012.7 - 0.4 - - 10 - - - -
01/08:30am 29.6 ENE 6 9 1012.5 - 0.4 - - 10 - - - -
01/08:00am 27.8 ENE 5 8 1012.2 - 0.4 - - 10 - - - -
01/07:30am 25.7 NE 5 6 1011.9 - 0.4 - - 10 - - - -
01/07:00am 22.9 NNE 3 4 1011.5 - 0.4 - - 10 - - - -
01/06:30am 21.7 CALM 0 0 1011.0 - 0.4 - - 10 - - - -
01/06:00am 22.1 E 1 3 1010.7 - 0.4 - - 10 - - - -
01/05:30am 22.9 ENE 3 4 1010.2 - 0.4 - - 10 - - - -
01/05:00am 23.0 ENE 5 6 1009.7 - 0.4 - - 10 - - - -
01/04:30am 22.9 ENE 4 5 1009.5 - 0.4 - - 10 - - - -
01/04:00am 23.0 NE 5 6 1009.6 - 0.4 - - 10 - - - -
01/03:30am 22.2 ENE 3 5 1009.5 - 0.4 - - 10 - - - -
01/03:00am 22.7 CALM 0 0 1009.5 - 0.4 - - 10 - - - -
01/02:30am 22.9 ENE 1 3 1009.7 - 0.4 - - 10 - - - -
01/02:00am 23.3 CALM 0 0 1009.8 - 0.4 - - 10 - - - -
01/01:30am 23.6 ENE 3 4 1009.9 - 0.4 - - 10 - - - -
01/01:00am 23.8 ENE 5 7 1010.3 - 0.4 - - 10 - - - -
01/12:30am 23.9 CALM 0 0 1010.4 - 0.4 - - 10 - - - -
01/12:00am 24.4 CALM 0 0 1010.4 - 0.4 - - 10 - - - -
 
Date/Time
EST
Temp
°C
Wind Pressure Rain since
9am
mm
Weather Cloud Vis
km
Sea
Height
m
Swell
Dir  Spd
kts
Gust
kts
hPa Trend Height
m
Period
s
Dir
30/11:30pm 24.5 NW 2 4 1010.5 - 0.4 - - 10 - - - -
30/11:00pm 24.8 NE 1 3 1010.6 - 0.4 - - 10 - - - -
30/10:30pm 25.3 SW 4 5 1010.6 - 0.4 - - 10 - - - -
30/10:00pm 25.6 CALM 0 3 1010.7 - 0.4 - - 10 - - - -
30/09:30pm 26.1 WSW 4 6 1010.3 - 0.4 - - 10 - - - -
30/09:00pm 26.5 SW 5 7 1009.9 - 0.4 - Cloudy 10 - - - -
30/08:30pm 26.9 SSW 4 6 1009.6 - 0.4 - - 10 - - - -
30/08:00pm 27.3 SW 5 7 1009.1 - 0.4 - - 10 - - - -
30/07:30pm 28.0 WSW 7 9 1008.7 - 0.4 - - 10 - - - -
30/07:00pm 28.8 WSW 8 11 1008.5 - 0.4 - - 10 - - - -
30/06:30pm 29.8 SW 7 8 1008.5 - 0.4 - Partly cloudy 10 - - - -
30/06:00pm 30.9 W 7 9 1008.3 - 0.4 - Mostly clear 10 - - - -
30/05:30pm 31.8 W 9 12 1008.0 - 0.4 - Partly cloudy 10 - - - -
30/05:00pm 32.3 W 9 13 1007.8 - 0.4 - - 10 - - - -
30/04:30pm 32.9 WSW 11 15 1007.6 - 0.4 - - 10 - - - -
30/04:00pm 31.3 W 10 13 1007.5 - 0.4 - - 10 - - - -
30/03:30pm 33.3 WSW 11 14 1007.3 - 0.4 - - 10 - - - -
30/03:00pm 34.3 WSW 10 16 1007.4 - 0.4 - Mostly cloudy 10 - - - -
30/02:30pm 33.8 SW 9 15 1007.7 - 0.4 - - 10 - - - -
30/02:00pm 33.4 WSW 9 14 1008.2 - 0.4 - Partly cloudy 10 - - - -
30/01:30pm 32.8 SW 10 14 1008.7 - 0.4 - Partly cloudy 10 - - - -
30/01:00pm 33.6 SSW 8 12 1009.1 - 0.4 - - 10 - - - -
30/12:30pm 32.2 SW 7 10 1009.7 - 0.4 - - 10 - - - -
30/12:00pm 31.0 SSW 8 10 1010.4 - 0.4 Rain Partly cloudy 10 - - - -
30/11:30am 28.5 SW 13 18 1010.6 - 0.4 - Partly cloudy 10 - - - -
30/11:00am 32.4 WNW 4 12 1010.6 - 0.0 - Partly cloudy 10 - - - -
30/10:30am 32.4 WSW 2 6 1010.7 - 0.0 - Partly cloudy 10 - - - -
30/10:00am 31.1 SSE 3 6 1011.1 - 0.0 - Partly cloudy 10 - - - -
30/09:30am 30.3 S 4 8 1011.2 - 0.0 - Partly cloudy 10 - - - -
30/09:00am 29.7 SE 4 6 1011.2 - 0.0 - Mostly cloudy 10 - - - -
30/08:30am 28.9 S 4 7 1011.4 - 0.0 - Partly cloudy 10 - - - -
30/08:00am 28.2 CALM 0 0 1011.0 - 0.0 - - 10 - - - -
30/07:30am 26.8 CALM 0 0 1010.8 - 0.0 - - 10 - - - -
30/07:00am 25.9 CALM 0 0 1010.6 - 0.0 - - 10 - - - -
30/06:30am 24.8 CALM 0 0 1010.2 - 0.0 - - 10 - - - -
30/06:00am 24.7 CALM 0 0 1009.8 - 0.0 - Mostly clear 10 - - - -
30/05:30am 25.1 CALM 0 0 1009.8 - 0.0 - Partly cloudy 10 - - - -
30/05:00am 25.3 CALM 0 0 1009.4 - 0.0 - - 10 - - - -
30/04:30am 25.5 SSW 2 4 1009.3 - 0.0 - Partly cloudy 10 - - - -
30/04:00am 25.5 CALM 0 0 1009.1 - 0.0 - Partly cloudy 10 - - - -
30/03:30am 25.6 CALM 0 0 1008.8 - 0.0 - Partly cloudy 10 - - - -
30/03:00am 26.0 CALM 0 3 1008.9 - 0.0 - Cloudy 10 - - - -
30/02:30am 26.2 NE 4 4 1009.0 - 0.0 - Partly cloudy 10 - - - -
30/02:00am 26.3 CALM 0 2 1009.3 - 0.0 - - 10 - - - -
30/01:30am 26.3 NE 4 4 1009.5 - 0.0 - Partly cloudy 10 - - - -
30/01:00am 26.7 NNE 4 5 1009.7 - 0.0 - Partly cloudy 10 - - - -
30/12:30am 26.8 NNE 3 6 1009.7 - 0.0 - - 10 - - - -
30/12:00am 27.2 CALM 0 0 1009.8 - 0.0 - Cloudy 10 - - - -
 
Date/Time
EST
Temp
°C
Wind Pressure Rain since
9am
mm
Weather Cloud Vis
km
Sea
Height
m
Swell
Dir  Spd
kts
Gust
kts
hPa Trend Height
m
Period
s
Dir
29/11:30pm 27.2 CALM 0 0 1009.9 - 0.0 - - 10 - - - -
29/11:00pm 27.2 WSW 2 4 1009.9 - 0.0 - - 10 - - - -
29/10:30pm 27.2 SW 5 7 1009.9 - 0.0 - Partly cloudy 10 - - - -
29/10:00pm 27.3 WSW 5 6 1009.8 - 0.0 - - 10 - - - -
29/09:30pm 27.3 WSW 5 7 1010.0 - 0.0 - - 10 - - - -
29/09:00pm 27.5 SW 5 7 1009.6 - 0.0 - Mostly clear 10 - - - -
29/08:30pm 27.7 WSW 5 7 1009.2 - 0.0 - - 10 - - - -
29/08:00pm 28.1 WSW 5 6 1008.7 - 0.0 - - 10 - - - -
29/07:30pm 28.2 WSW 6 8 1008.3 - 0.0 - - 10 - - - -
29/07:00pm 28.4 WSW 6 9 1007.9 - 0.0 - - 10 - - - -
29/06:30pm 28.7 W 8 9 1007.6 - 0.0 - - 10 - - - -
29/06:00pm 29.1 WSW 9 11 1007.4 - 0.0 - Partly cloudy 10 - - - -
29/05:30pm 30.5 W 10 14 1007.1 - 0.0 - - 10 - - - -
29/05:00pm 31.3 WSW 10 14 1007.0 - 0.0 - - 10 - - - -
29/04:30pm 32.1 WSW 12 17 1006.8 - 0.0 - - 10 - - - -
29/04:00pm 32.7 W 12 17 1006.8 - 0.0 - - 10 - - - -
29/03:30pm 33.9 WSW 11 15 1006.9 - 0.0 - - 10 - - - -
29/03:00pm 34.1 WNW 12 18 1007.0 - 0.0 - - 10 - - - -
29/02:30pm 34.0 W 11 15 1007.2 - 0.0 - - 10 - - - -
29/02:00pm 34.4 WNW 11 17 1007.6 - 0.0 - Partly cloudy 10 - - - -
29/01:30pm 34.5 WNW 10 16 1008.0 - 0.0 - Partly cloudy 10 - - - -
29/01:00pm 34.2 W 11 16 1008.4 - 0.0 - Partly cloudy 10 - - - -
29/12:30pm 34.2 W 8 14 1008.8 - 0.0 - Partly cloudy 10 - - - -
29/12:00pm 33.8 NNW 5 8 1009.3 - 0.0 - Mostly clear 10 - - - -
29/11:30am 33.1 NW 7 12 1009.8 - 0.0 - Partly cloudy 10 - - - -
29/11:00am 32.9 NNW 6 9 1010.4 - 0.0 - Partly cloudy 10 - - - -
29/10:30am 31.6 NNW 5 11 1010.9 - 0.0 - - 10 - - - -
29/10:00am 30.8 N 5 8 1011.0 - 0.0 - - 10 - - - -
29/09:30am 29.5 NNW 6 9 1011.2 - 0.0 - - 10 - - - -
29/09:00am 29.0 NNE 5 9 1011.3 - 0.0 - Mostly clear 10 - - - -
29/08:30am 27.5 NNE 6 9 1011.1 - 0.0 - - 10 - - - -
29/08:00am 27.0 NNE 6 9 1011.0 - 0.0 - - 10 - - - -
29/07:30am 25.6 NE 5 8 1010.7 - 0.0 - - 10 - - - -
29/07:00am 25.0 NNE 4 6 1010.2 - 0.0 - - 10 - - - -
29/06:30am 24.4 NE 1 3 1010.1 - 0.0 - - 10 - - - -
29/06:00am 24.6 NE 3 5 1009.8 - 0.0 - - 10 - - - -
29/05:30am 24.5 NE 3 4 1009.3 - 0.0 - - 10 - - - -
29/05:00am 25.0 NNE 3 4 1009.1 - 0.0 - - 10 - - - -
29/04:30am 25.2 NE 3 5 1008.9 - 0.0 - - 10 - - - -
29/04:00am 25.3 NNE 5 6 1008.8 - 0.0 - - 10 - - - -
29/03:30am 25.3 NNE 4 6 1009.2 - 0.0 - - 10 - - - -
29/03:00am 25.3 NNE 4 6 1009.4 - 0.0 - - 10 - - - -
29/02:30am 25.4 N 4 6 1009.6 - 0.0 - - 10 - - - -
29/02:00am 25.6 NE 4 5 1010.0 - 0.0 - - 10 - - - -
29/01:30am 25.7 NE 4 5 1010.1 - 0.0 - - 10 - - - -
29/01:00am 26.0 N 4 5 1010.4 - 0.0 - - 10 - - - -
29/12:30am 26.4 N 3 5 1010.7 - 0.0 - - 10 - - - -
29/12:00am 26.7 NNE 4 7 1010.8 - 0.0 - Mostly clear 10 - - - -
 
Date/Time
EST
Temp
°C
Wind Pressure Rain since
9am
mm
Weather Cloud Vis
km
Sea
Height
m
Swell
Dir  Spd
kts
Gust
kts
hPa Trend Height
m
Period
s
Dir
28/11:30pm 27.0 NNE 4 6 1011.4 - 0.0 - Partly cloudy 10 - - - -
28/11:00pm 27.0 NNE 3 5 1011.5 - 0.0 - Partly cloudy 10 - - - -
28/10:30pm 27.0 NNE 5 6 1011.3 - 0.0 - Partly cloudy 10 - - - -
28/10:00pm 26.9 NNE 5 7 1010.8 - 0.0 - Partly cloudy 10 - - - -
28/09:30pm 26.8 WSW 5 7 1009.8 - 0.0 - - 10 - - - -
28/09:00pm 27.0 WSW 6 8 1009.3 - 0.0 - - 10 - - - -
28/08:30pm 27.0 W 7 9 1008.9 - 0.0 - - 10 - - - -
28/08:00pm 27.2 W 8 11 1008.6 - 0.0 - - 10 - - - -
28/07:30pm 27.5 W 7 11 1008.5 - 0.0 - - 10 - - - -
28/07:00pm 28.1 W 11 15 1008.3 - 0.0 - - 10 - - - -
28/06:30pm 28.9 W 10 13 1007.9 - 0.0 - - 10 - - - -
28/06:00pm 30.5 W 11 15 1007.6 - 0.0 - - 10 - - - -
28/05:30pm 31.8 W 12 15 1007.2 - 0.0 - - 10 - - - -
28/05:00pm 33.1 W 13 16 1006.8 - 0.0 - - 10 - - - -
28/04:30pm 33.9 W 11 15 1006.4 - 0.0 - - 10 - - - -
28/04:00pm 34.8 WNW 13 17 1006.4 - 0.0 - - 10 - - - -
28/03:30pm 35.7 NW 9 15 1006.4 - 0.0 - Partly cloudy 10 - - - -
28/03:00pm 36.7 WNW 10 17 1006.6 - 0.0 - - 10 - - - -
28/02:30pm 36.6 NE 7 12 1007.1 - 0.0 - - 10 - - - -
28/02:00pm 36.8 NW 8 13 1007.6 - 0.0 - - 10 - - - -
28/01:30pm 36.4 N 3 12 1008.2 - 0.0 - - 10 - - - -
28/01:00pm 35.8 NE 6 11 1008.6 - 0.0 - - 10 - - - -
28/12:30pm 35.3 N 5 10 1009.2 - 0.0 - - 10 - - - -
28/12:00pm 34.4 NNE 5 9 1009.8 - 0.0 - - 10 - - - -
28/11:30am 34.0 N 6 11 1010.5 - 0.0 - - 10 - - - -
28/11:00am 32.9 NE 7 10 1011.1 - 0.0 - - 10 - - - -
28/10:30am 32.1 NNE 6 11 1011.6 - 0.0 - - 10 - - - -
28/10:00am 30.6 NNE 7 11 1012.1 - 0.0 - - 10 - - - -

Other Formats:

Comma delimited format used in spreadsheet applications
http://www.bom.gov.au/fwo/IDQ60701/IDQ60701.94268.axf

JavaScript Object Notation format (JSON) in row-major order
http://www.bom.gov.au/fwo/IDQ60701/IDQ60701.94268.json